sensor_id;sensor_type;location;lat;lon;timestamp;temperature;humidity
68578;SHT31;61668;45.388;11.784;2022-08-21T00:02:12;22.94;69.12
68578;SHT31;61668;45.388;11.784;2022-08-21T00:04:43;22.92;69.23
68578;SHT31;61668;45.388;11.784;2022-08-21T00:07:09;22.89;69.29
68578;SHT31;61668;45.388;11.784;2022-08-21T00:09:34;22.86;69.38
68578;SHT31;61668;45.388;11.784;2022-08-21T00:12:01;22.82;69.64
68578;SHT31;61668;45.388;11.784;2022-08-21T00:14:26;22.81;69.80
68578;SHT31;61668;45.388;11.784;2022-08-21T00:16:52;22.80;69.91
68578;SHT31;61668;45.388;11.784;2022-08-21T00:19:17;22.79;69.99
68578;SHT31;61668;45.388;11.784;2022-08-21T00:21:43;22.80;70.07
68578;SHT31;61668;45.388;11.784;2022-08-21T00:24:09;22.79;70.19
68578;SHT31;61668;45.388;11.784;2022-08-21T00:26:34;22.78;70.05
68578;SHT31;61668;45.388;11.784;2022-08-21T00:29:00;22.76;70.10
68578;SHT31;61668;45.388;11.784;2022-08-21T00:31:25;22.72;70.10
68578;SHT31;61668;45.388;11.784;2022-08-21T00:33:51;22.70;70.02
68578;SHT31;61668;45.388;11.784;2022-08-21T00:36:17;22.69;70.07
68578;SHT31;61668;45.388;11.784;2022-08-21T00:38:43;22.69;69.91
68578;SHT31;61668;45.388;11.784;2022-08-21T00:41:10;22.68;69.88
68578;SHT31;61668;45.388;11.784;2022-08-21T00:43:37;22.67;69.88
68578;SHT31;61668;45.388;11.784;2022-08-21T00:46:04;22.64;69.69
68578;SHT31;61668;45.388;11.784;2022-08-21T00:48:31;22.62;69.54
68578;SHT31;61668;45.388;11.784;2022-08-21T00:51:04;22.58;69.33
68578;SHT31;61668;45.388;11.784;2022-08-21T00:53:35;22.53;69.05
68578;SHT31;61668;45.388;11.784;2022-08-21T00:56:05;22.50;68.88
68578;SHT31;61668;45.388;11.784;2022-08-21T00:58:34;22.48;68.81
68578;SHT31;61668;45.388;11.784;2022-08-21T01:01:03;22.46;68.77
68578;SHT31;61668;45.388;11.784;2022-08-21T01:03:31;22.45;68.77
68578;SHT31;61668;45.388;11.784;2022-08-21T01:05:58;22.44;68.80
68578;SHT31;61668;45.388;11.784;2022-08-21T01:08:23;22.41;68.66
68578;SHT31;61668;45.388;11.784;2022-08-21T01:10:50;22.39;68.52
68578;SHT31;61668;45.388;11.784;2022-08-21T01:13:18;22.35;68.34
68578;SHT31;61668;45.388;11.784;2022-08-21T01:15:48;22.31;68.26
68578;SHT31;61668;45.388;11.784;2022-08-21T01:18:16;22.26;68.41
68578;SHT31;61668;45.388;11.784;2022-08-21T01:20:44;22.24;68.28
68578;SHT31;61668;45.388;11.784;2022-08-21T01:23:22;22.23;68.18
68578;SHT31;61668;45.388;11.784;2022-08-21T01:25:47;22.23;68.20
68578;SHT31;61668;45.388;11.784;2022-08-21T01:28:13;22.24;68.26
68578;SHT31;61668;45.388;11.784;2022-08-21T01:30:40;22.23;68.19
68578;SHT31;61668;45.388;11.784;2022-08-21T01:33:08;22.21;68.08
68578;SHT31;61668;45.388;11.784;2022-08-21T01:35:35;22.17;68.08
68578;SHT31;61668;45.388;11.784;2022-08-21T01:38:00;22.15;68.17
68578;SHT31;61668;45.388;11.784;2022-08-21T01:40:26;22.11;68.24
68578;SHT31;61668;45.388;11.784;2022-08-21T01:42:51;22.06;68.46
68578;SHT31;61668;45.388;11.784;2022-08-21T01:45:18;22.03;68.60
68578;SHT31;61668;45.388;11.784;2022-08-21T01:47:44;22.02;68.52
68578;SHT31;61668;45.388;11.784;2022-08-21T01:50:11;22.00;68.50
68578;SHT31;61668;45.388;11.784;2022-08-21T01:52:40;21.99;68.30
68578;SHT31;61668;45.388;11.784;2022-08-21T01:55:07;21.98;67.96
68578;SHT31;61668;45.388;11.784;2022-08-21T01:57:34;21.94;67.76
68578;SHT31;61668;45.388;11.784;2022-08-21T02:00:00;21.91;67.54
68578;SHT31;61668;45.388;11.784;2022-08-21T02:02:25;21.88;67.33
68578;SHT31;61668;45.388;11.784;2022-08-21T02:04:51;21.85;67.49
68578;SHT31;61668;45.388;11.784;2022-08-21T02:07:17;21.81;67.66
68578;SHT31;61668;45.388;11.784;2022-08-21T02:09:43;21.77;67.66
68578;SHT31;61668;45.388;11.784;2022-08-21T02:12:09;21.75;67.70
68578;SHT31;61668;45.388;11.784;2022-08-21T02:14:36;21.74;67.68
68578;SHT31;61668;45.388;11.784;2022-08-21T02:17:02;21.73;67.74
68578;SHT31;61668;45.388;11.784;2022-08-21T02:19:28;21.74;67.68
68578;SHT31;61668;45.388;11.784;2022-08-21T02:21:54;21.71;67.40
68578;SHT31;61668;45.388;11.784;2022-08-21T02:24:19;21.68;67.33
68578;SHT31;61668;45.388;11.784;2022-08-21T02:26:45;21.68;67.39
68578;SHT31;61668;45.388;11.784;2022-08-21T02:29:10;21.64;67.62
68578;SHT31;61668;45.388;11.784;2022-08-21T02:31:36;21.60;67.82
68578;SHT31;61668;45.388;11.784;2022-08-21T02:34:01;21.56;67.71
68578;SHT31;61668;45.388;11.784;2022-08-21T02:36:27;21.52;67.61
68578;SHT31;61668;45.388;11.784;2022-08-21T02:38:53;21.50;67.71
68578;SHT31;61668;45.388;11.784;2022-08-21T02:41:20;21.51;67.91
68578;SHT31;61668;45.388;11.784;2022-08-21T02:43:47;21.49;67.96
68578;SHT31;61668;45.388;11.784;2022-08-21T02:46:14;21.47;68.03
68578;SHT31;61668;45.388;11.784;2022-08-21T02:48:42;21.45;67.94
68578;SHT31;61668;45.388;11.784;2022-08-21T02:51:10;21.41;67.91
68578;SHT31;61668;45.388;11.784;2022-08-21T02:53:41;21.39;68.00
68578;SHT31;61668;45.388;11.784;2022-08-21T02:56:10;21.34;67.73
68578;SHT31;61668;45.388;11.784;2022-08-21T02:58:43;21.31;67.66
68578;SHT31;61668;45.388;11.784;2022-08-21T03:01:12;21.26;67.56
68578;SHT31;61668;45.388;11.784;2022-08-21T03:03:40;21.25;67.47
68578;SHT31;61668;45.388;11.784;2022-08-21T03:06:09;21.24;67.40
68578;SHT31;61668;45.388;11.784;2022-08-21T03:08:37;21.22;67.40
68578;SHT31;61668;45.388;11.784;2022-08-21T03:11:04;21.19;67.54
68578;SHT31;61668;45.388;11.784;2022-08-21T03:13:31;21.18;67.60
68578;SHT31;61668;45.388;11.784;2022-08-21T03:15:57;21.15;67.66
68578;SHT31;61668;45.388;11.784;2022-08-21T03:18:23;21.12;67.55
68578;SHT31;61668;45.388;11.784;2022-08-21T03:20:48;21.08;67.38
68578;SHT31;61668;45.388;11.784;2022-08-21T03:23:15;21.06;67.26
68578;SHT31;61668;45.388;11.784;2022-08-21T03:25:42;21.03;67.23
68578;SHT31;61668;45.388;11.784;2022-08-21T03:28:10;21.01;67.16
68578;SHT31;61668;45.388;11.784;2022-08-21T03:30:45;21.00;67.12
68578;SHT31;61668;45.388;11.784;2022-08-21T03:33:13;21.02;67.11
68578;SHT31;61668;45.388;11.784;2022-08-21T03:35:41;21.02;67.03
68578;SHT31;61668;45.388;11.784;2022-08-21T03:38:08;21.00;67.31
68578;SHT31;61668;45.388;11.784;2022-08-21T03:40:34;20.99;67.40
68578;SHT31;61668;45.388;11.784;2022-08-21T03:42:59;20.97;67.50
68578;SHT31;61668;45.388;11.784;2022-08-21T03:45:25;20.94;67.58
68578;SHT31;61668;45.388;11.784;2022-08-21T03:50:18;20.86;67.82
68578;SHT31;61668;45.388;11.784;2022-08-21T03:52:43;20.85;68.00
68578;SHT31;61668;45.388;11.784;2022-08-21T03:55:09;20.84;68.19
68578;SHT31;61668;45.388;11.784;2022-08-21T03:57:35;20.84;68.24
68578;SHT31;61668;45.388;11.784;2022-08-21T04:00:00;20.84;68.22
68578;SHT31;61668;45.388;11.784;2022-08-21T04:02:26;20.85;68.13
68578;SHT31;61668;45.388;11.784;2022-08-21T04:04:52;20.81;68.13
68578;SHT31;61668;45.388;11.784;2022-08-21T04:07:17;20.77;68.39
68578;SHT31;61668;45.388;11.784;2022-08-21T04:09:43;20.76;68.64
68578;SHT31;61668;45.388;11.784;2022-08-21T04:12:08;20.73;68.77
68578;SHT31;61668;45.388;11.784;2022-08-21T04:14:34;20.72;68.89
68578;SHT31;61668;45.388;11.784;2022-08-21T04:17:00;20.74;69.04
68578;SHT31;61668;45.388;11.784;2022-08-21T04:19:25;20.75;69.28
68578;SHT31;61668;45.388;11.784;2022-08-21T04:21:51;20.76;69.45
68578;SHT31;61668;45.388;11.784;2022-08-21T04:24:17;20.76;69.41
68578;SHT31;61668;45.388;11.784;2022-08-21T04:26:42;20.76;69.40
68578;SHT31;61668;45.388;11.784;2022-08-21T04:29:07;20.75;69.42
68578;SHT31;61668;45.388;11.784;2022-08-21T04:31:33;20.73;69.50
68578;SHT31;61668;45.388;11.784;2022-08-21T04:34:02;20.68;69.42
68578;SHT31;61668;45.388;11.784;2022-08-21T04:36:29;20.67;69.33
68578;SHT31;61668;45.388;11.784;2022-08-21T04:38:56;20.66;69.30
68578;SHT31;61668;45.388;11.784;2022-08-21T04:41:21;20.67;69.25
68578;SHT31;61668;45.388;11.784;2022-08-21T04:43:47;20.67;69.30
68578;SHT31;61668;45.388;11.784;2022-08-21T04:46:13;20.67;69.42
68578;SHT31;61668;45.388;11.784;2022-08-21T04:48:38;20.65;69.32
68578;SHT31;61668;45.388;11.784;2022-08-21T04:53:41;20.64;69.41
68578;SHT31;61668;45.388;11.784;2022-08-21T04:56:14;20.61;69.58
68578;SHT31;61668;45.388;11.784;2022-08-21T04:58:46;20.61;69.73
68578;SHT31;61668;45.388;11.784;2022-08-21T05:01:15;20.63;69.62
68578;SHT31;61668;45.388;11.784;2022-08-21T05:03:45;20.66;69.51
68578;SHT31;61668;45.388;11.784;2022-08-21T05:06:14;20.68;69.45
68578;SHT31;61668;45.388;11.784;2022-08-21T05:08:41;20.69;69.37
68578;SHT31;61668;45.388;11.784;2022-08-21T05:11:09;20.70;69.26
68578;SHT31;61668;45.388;11.784;2022-08-21T05:13:36;20.71;69.14
68578;SHT31;61668;45.388;11.784;2022-08-21T05:16:01;20.70;69.14
68578;SHT31;61668;45.388;11.784;2022-08-21T05:18:28;20.71;69.12
68578;SHT31;61668;45.388;11.784;2022-08-21T05:20:53;20.68;69.09
68578;SHT31;61668;45.388;11.784;2022-08-21T05:23:19;20.68;68.96
68578;SHT31;61668;45.388;11.784;2022-08-21T05:25:44;20.74;69.04
68578;SHT31;61668;45.388;11.784;2022-08-21T05:28:10;20.86;68.91
68578;SHT31;61668;45.388;11.784;2022-08-21T05:30:36;21.06;68.69
68578;SHT31;61668;45.388;11.784;2022-08-21T05:33:03;21.26;68.19
68578;SHT31;61668;45.388;11.784;2022-08-21T05:35:30;21.52;68.18
68578;SHT31;61668;45.388;11.784;2022-08-21T05:37:57;21.85;67.56
68578;SHT31;61668;45.388;11.784;2022-08-21T05:40:25;22.18;67.01
68578;SHT31;61668;45.388;11.784;2022-08-21T05:42:51;22.51;66.18
68578;SHT31;61668;45.388;11.784;2022-08-21T05:45:18;22.85;65.67
68578;SHT31;61668;45.388;11.784;2022-08-21T05:47:44;23.24;65.23
68578;SHT31;61668;45.388;11.784;2022-08-21T05:50:10;23.64;64.45
68578;SHT31;61668;45.388;11.784;2022-08-21T05:52:36;23.99;63.47
68578;SHT31;61668;45.388;11.784;2022-08-21T05:55:01;24.31;62.97
68578;SHT31;61668;45.388;11.784;2022-08-21T05:57:27;24.64;62.24
68578;SHT31;61668;45.388;11.784;2022-08-21T05:59:53;24.88;61.81
68578;SHT31;61668;45.388;11.784;2022-08-21T06:02:19;25.18;61.05
68578;SHT31;61668;45.388;11.784;2022-08-21T06:04:46;25.48;59.70
68578;SHT31;61668;45.388;11.784;2022-08-21T06:07:13;25.68;59.23
68578;SHT31;61668;45.388;11.784;2022-08-21T06:09:39;25.78;58.66
68578;SHT31;61668;45.388;11.784;2022-08-21T06:12:05;25.82;58.00
68578;SHT31;61668;45.388;11.784;2022-08-21T06:14:34;25.85;57.85
68578;SHT31;61668;45.388;11.784;2022-08-21T06:17:04;25.84;57.32
68578;SHT31;61668;45.388;11.784;2022-08-21T06:19:32;25.84;57.40
68578;SHT31;61668;45.388;11.784;2022-08-21T06:21:59;25.84;57.26
68578;SHT31;61668;45.388;11.784;2022-08-21T06:24:24;25.83;57.33
68578;SHT31;61668;45.388;11.784;2022-08-21T06:26:50;25.82;57.08
68578;SHT31;61668;45.388;11.784;2022-08-21T06:29:16;25.81;56.99
68578;SHT31;61668;45.388;11.784;2022-08-21T06:31:42;25.78;57.03
68578;SHT31;61668;45.388;11.784;2022-08-21T06:34:09;25.76;57.18
68578;SHT31;61668;45.388;11.784;2022-08-21T06:36:35;25.73;57.04
68578;SHT31;61668;45.388;11.784;2022-08-21T06:39:02;25.68;57.00
68578;SHT31;61668;45.388;11.784;2022-08-21T06:41:28;25.62;57.12
68578;SHT31;61668;45.388;11.784;2022-08-21T06:43:54;25.57;57.11
68578;SHT31;61668;45.388;11.784;2022-08-21T06:46:21;25.50;57.14
68578;SHT31;61668;45.388;11.784;2022-08-21T06:48:48;25.44;57.40
68578;SHT31;61668;45.388;11.784;2022-08-21T06:51:14;25.38;57.69
68578;SHT31;61668;45.388;11.784;2022-08-21T06:53:40;25.34;57.81
68578;SHT31;61668;45.388;11.784;2022-08-21T06:56:06;25.30;57.19
68578;SHT31;61668;45.388;11.784;2022-08-21T06:58:31;25.25;57.38
68578;SHT31;61668;45.388;11.784;2022-08-21T07:00:57;25.22;57.48
68578;SHT31;61668;45.388;11.784;2022-08-21T07:03:27;25.19;57.51
68578;SHT31;61668;45.388;11.784;2022-08-21T07:05:59;25.17;57.71
68578;SHT31;61668;45.388;11.784;2022-08-21T07:08:25;25.14;58.00
68578;SHT31;61668;45.388;11.784;2022-08-21T07:10:53;25.13;57.90
68578;SHT31;61668;45.388;11.784;2022-08-21T07:13:22;25.12;58.28
68578;SHT31;61668;45.388;11.784;2022-08-21T07:15:48;25.13;58.54
68578;SHT31;61668;45.388;11.784;2022-08-21T07:18:13;25.15;58.89
68578;SHT31;61668;45.388;11.784;2022-08-21T07:20:39;25.18;58.77
68578;SHT31;61668;45.388;11.784;2022-08-21T07:23:08;25.22;59.13
68578;SHT31;61668;45.388;11.784;2022-08-21T07:25:38;25.26;59.02
68578;SHT31;61668;45.388;11.784;2022-08-21T07:28:04;25.29;59.34
68578;SHT31;61668;45.388;11.784;2022-08-21T07:30:29;25.33;59.63
68578;SHT31;61668;45.388;11.784;2022-08-21T07:32:55;25.38;59.38
68578;SHT31;61668;45.388;11.784;2022-08-21T07:35:22;25.40;59.27
68578;SHT31;61668;45.388;11.784;2022-08-21T07:37:47;25.44;59.17
68578;SHT31;61668;45.388;11.784;2022-08-21T07:40:14;25.47;59.11
68578;SHT31;61668;45.388;11.784;2022-08-21T07:42:42;25.52;59.60
68578;SHT31;61668;45.388;11.784;2022-08-21T07:45:14;25.56;59.70
68578;SHT31;61668;45.388;11.784;2022-08-21T07:47:40;25.63;60.14
68578;SHT31;61668;45.388;11.784;2022-08-21T07:50:06;25.68;60.04
68578;SHT31;61668;45.388;11.784;2022-08-21T07:52:33;25.74;60.13
68578;SHT31;61668;45.388;11.784;2022-08-21T07:54:59;25.80;60.46
68578;SHT31;61668;45.388;11.784;2022-08-21T07:57:25;25.87;60.83
68578;SHT31;61668;45.388;11.784;2022-08-21T07:59:51;25.94;60.72
68578;SHT31;61668;45.388;11.784;2022-08-21T08:02:26;26.01;60.63
68578;SHT31;61668;45.388;11.784;2022-08-21T08:04:57;26.07;60.93
68578;SHT31;61668;45.388;11.784;2022-08-21T08:07:25;26.14;61.09
68578;SHT31;61668;45.388;11.784;2022-08-21T08:09:51;26.21;60.83
68578;SHT31;61668;45.388;11.784;2022-08-21T08:12:17;26.31;60.78
68578;SHT31;61668;45.388;11.784;2022-08-21T08:14:43;26.40;60.48
68578;SHT31;61668;45.388;11.784;2022-08-21T08:17:09;26.48;60.05
68578;SHT31;61668;45.388;11.784;2022-08-21T08:19:34;26.63;59.73
68578;SHT31;61668;45.388;11.784;2022-08-21T08:22:00;26.82;59.77
68578;SHT31;61668;45.388;11.784;2022-08-21T08:24:25;26.96;59.31
68578;SHT31;61668;45.388;11.784;2022-08-21T08:26:51;27.42;58.66
68578;SHT31;61668;45.388;11.784;2022-08-21T08:29:19;29.15;55.62
68578;SHT31;61668;45.388;11.784;2022-08-21T08:31:47;30.44;53.16
68578;SHT31;61668;45.388;11.784;2022-08-21T08:34:12;30.38;52.42
68578;SHT31;61668;45.388;11.784;2022-08-21T08:36:38;30.61;51.69
68578;SHT31;61668;45.388;11.784;2022-08-21T08:39:04;30.89;51.26
68578;SHT31;61668;45.388;11.784;2022-08-21T08:41:30;31.00;51.26
68578;SHT31;61668;45.388;11.784;2022-08-21T08:43:58;31.01;51.67
68578;SHT31;61668;45.388;11.784;2022-08-21T08:46:34;31.11;51.44
68578;SHT31;61668;45.388;11.784;2022-08-21T08:49:15;32.30;50.02
68578;SHT31;61668;45.388;11.784;2022-08-21T08:52:05;33.76;47.55
68578;SHT31;61668;45.388;11.784;2022-08-21T08:54:48;34.79;45.49
68578;SHT31;61668;45.388;11.784;2022-08-21T08:57:39;35.54;42.68
68578;SHT31;61668;45.388;11.784;2022-08-21T09:00:12;35.96;41.98
68578;SHT31;61668;45.388;11.784;2022-08-21T09:02:42;36.35;41.45
68578;SHT31;61668;45.388;11.784;2022-08-21T09:05:13;36.64;40.53
68578;SHT31;61668;45.388;11.784;2022-08-21T09:07:59;36.82;40.27
68578;SHT31;61668;45.388;11.784;2022-08-21T09:11:07;37.03;39.26
68578;SHT31;61668;45.388;11.784;2022-08-21T09:20:14;37.61;38.92
68578;SHT31;61668;45.388;11.784;2022-08-21T09:25:30;37.48;36.74
68578;SHT31;61668;45.388;11.784;2022-08-21T09:28:03;37.34;36.66
68578;SHT31;61668;45.388;11.784;2022-08-21T09:30:36;37.26;34.89
68578;SHT31;61668;45.388;11.784;2022-08-21T09:33:05;37.09;35.56
68578;SHT31;61668;45.388;11.784;2022-08-21T09:35:32;36.90;35.23
68578;SHT31;61668;45.388;11.784;2022-08-21T09:38:04;36.64;35.88
68578;SHT31;61668;45.388;11.784;2022-08-21T09:40:44;36.60;37.49
68578;SHT31;61668;45.388;11.784;2022-08-21T09:45:37;36.79;36.20
68578;SHT31;61668;45.388;11.784;2022-08-21T09:50:50;36.50;36.44
68578;SHT31;61668;45.388;11.784;2022-08-21T09:55:51;36.27;37.74
68578;SHT31;61668;45.388;11.784;2022-08-21T09:58:40;36.16;37.72
68578;SHT31;61668;45.388;11.784;2022-08-21T10:01:12;36.11;37.27
68578;SHT31;61668;45.388;11.784;2022-08-21T10:03:42;36.01;37.76
68578;SHT31;61668;45.388;11.784;2022-08-21T10:06:08;35.85;36.99
68578;SHT31;61668;45.388;11.784;2022-08-21T10:08:39;35.58;37.18
68578;SHT31;61668;45.388;11.784;2022-08-21T10:11:07;35.46;37.46
68578;SHT31;61668;45.388;11.784;2022-08-21T10:36:18;35.32;37.72
68578;SHT31;61668;45.388;11.784;2022-08-21T10:39:07;35.40;37.10
68578;SHT31;61668;45.388;11.784;2022-08-21T10:47:41;35.24;36.38
68578;SHT31;61668;45.388;11.784;2022-08-21T10:50:19;35.26;36.39
68578;SHT31;61668;45.388;11.784;2022-08-21T10:56:11;35.42;36.00
68578;SHT31;61668;45.388;11.784;2022-08-21T11:02:52;35.79;34.94
68578;SHT31;61668;45.388;11.784;2022-08-21T11:07:55;36.02;36.45
68578;SHT31;61668;45.388;11.784;2022-08-21T11:10:33;36.18;35.30
68578;SHT31;61668;45.388;11.784;2022-08-21T11:19:00;36.03;33.24
68578;SHT31;61668;45.388;11.784;2022-08-21T11:30:14;35.97;32.84
68578;SHT31;61668;45.388;11.784;2022-08-21T11:46:39;36.76;33.20
68578;SHT31;61668;45.388;11.784;2022-08-21T11:52:10;36.97;32.11
68578;SHT31;61668;45.388;11.784;2022-08-21T12:00:35;36.91;33.44
68578;SHT31;61668;45.388;11.784;2022-08-21T12:03:16;36.98;33.07
68578;SHT31;61668;45.388;11.784;2022-08-21T12:05:56;36.90;31.74
68578;SHT31;61668;45.388;11.784;2022-08-21T12:08:35;36.75;31.73
68578;SHT31;61668;45.388;11.784;2022-08-21T12:14:00;36.66;30.91
68578;SHT31;61668;45.388;11.784;2022-08-21T12:16:41;36.62;31.05
68578;SHT31;61668;45.388;11.784;2022-08-21T12:26:53;36.27;30.50
68578;SHT31;61668;45.388;11.784;2022-08-21T12:29:28;36.22;30.33
68578;SHT31;61668;45.388;11.784;2022-08-21T12:34:50;36.21;30.39
68578;SHT31;61668;45.388;11.784;2022-08-21T12:40:10;36.15;30.34
68578;SHT31;61668;45.388;11.784;2022-08-21T12:42:54;36.12;30.77
68578;SHT31;61668;45.388;11.784;2022-08-21T12:48:04;36.06;30.91
68578;SHT31;61668;45.388;11.784;2022-08-21T12:50:37;36.13;30.16
68578;SHT31;61668;45.388;11.784;2022-08-21T12:53:40;36.14;29.32
68578;SHT31;61668;45.388;11.784;2022-08-21T12:56:12;36.16;29.80
68578;SHT31;61668;45.388;11.784;2022-08-21T12:58:52;36.27;29.71
68578;SHT31;61668;45.388;11.784;2022-08-21T13:04:17;36.44;30.47
68578;SHT31;61668;45.388;11.784;2022-08-21T13:06:49;36.43;29.22
68578;SHT31;61668;45.388;11.784;2022-08-21T13:09:19;36.38;28.99
68578;SHT31;61668;45.388;11.784;2022-08-21T13:11:51;36.31;28.78
68578;SHT31;61668;45.388;11.784;2022-08-21T13:16:53;36.27;27.96
68578;SHT31;61668;45.388;11.784;2022-08-21T13:19:20;36.28;28.69
68578;SHT31;61668;45.388;11.784;2022-08-21T13:21:46;36.35;28.94
68578;SHT31;61668;45.388;11.784;2022-08-21T13:24:19;36.43;28.79
68578;SHT31;61668;45.388;11.784;2022-08-21T13:27:14;36.49;28.96
68578;SHT31;61668;45.388;11.784;2022-08-21T13:29:44;36.54;29.09
68578;SHT31;61668;45.388;11.784;2022-08-21T13:32:13;36.53;28.93
68578;SHT31;61668;45.388;11.784;2022-08-21T13:34:48;36.38;28.84
68578;SHT31;61668;45.388;11.784;2022-08-21T13:37:13;36.17;29.07
68578;SHT31;61668;45.388;11.784;2022-08-21T13:39:39;35.94;29.71
68578;SHT31;61668;45.388;11.784;2022-08-21T13:42:08;35.78;29.86
68578;SHT31;61668;45.388;11.784;2022-08-21T13:44:40;35.58;30.06
68578;SHT31;61668;45.388;11.784;2022-08-21T13:47:09;35.40;30.22
68578;SHT31;61668;45.388;11.784;2022-08-21T13:49:39;35.28;30.57
68578;SHT31;61668;45.388;11.784;2022-08-21T13:52:28;35.18;30.94
68578;SHT31;61668;45.388;11.784;2022-08-21T13:55:06;35.05;30.83
68578;SHT31;61668;45.388;11.784;2022-08-21T13:57:36;34.97;31.13
68578;SHT31;61668;45.388;11.784;2022-08-21T14:02:54;34.75;31.46
68578;SHT31;61668;45.388;11.784;2022-08-21T14:05:31;34.66;31.23
68578;SHT31;61668;45.388;11.784;2022-08-21T14:08:06;34.56;31.01
68578;SHT31;61668;45.388;11.784;2022-08-21T14:10:41;34.37;31.32
68578;SHT31;61668;45.388;11.784;2022-08-21T14:13:33;34.17;31.46
68578;SHT31;61668;45.388;11.784;2022-08-21T14:16:26;34.01;31.88
68578;SHT31;61668;45.388;11.784;2022-08-21T14:19:10;33.93;31.87
68578;SHT31;61668;45.388;11.784;2022-08-21T14:21:47;33.86;31.85
68578;SHT31;61668;45.388;11.784;2022-08-21T14:26:49;33.59;32.13
68578;SHT31;61668;45.388;11.784;2022-08-21T14:29:17;33.47;32.03
68578;SHT31;61668;45.388;11.784;2022-08-21T14:31:51;33.40;32.34
68578;SHT31;61668;45.388;11.784;2022-08-21T14:34:24;33.35;32.69
68578;SHT31;61668;45.388;11.784;2022-08-21T14:36:52;33.29;33.31
68578;SHT31;61668;45.388;11.784;2022-08-21T14:39:19;33.24;33.64
68578;SHT31;61668;45.388;11.784;2022-08-21T14:41:45;33.15;33.43
68578;SHT31;61668;45.388;11.784;2022-08-21T14:44:14;33.07;33.46
68578;SHT31;61668;45.388;11.784;2022-08-21T14:46:41;33.00;33.43
68578;SHT31;61668;45.388;11.784;2022-08-21T14:49:07;32.95;33.84
68578;SHT31;61668;45.388;11.784;2022-08-21T14:51:33;32.92;33.94
68578;SHT31;61668;45.388;11.784;2022-08-21T14:53:58;32.88;33.94
68578;SHT31;61668;45.388;11.784;2022-08-21T14:56:24;32.86;34.16
68578;SHT31;61668;45.388;11.784;2022-08-21T14:58:51;32.84;34.08
68578;SHT31;61668;45.388;11.784;2022-08-21T15:01:18;32.81;34.26
68578;SHT31;61668;45.388;11.784;2022-08-21T15:03:47;32.78;34.12
68578;SHT31;61668;45.388;11.784;2022-08-21T15:06:14;32.72;33.79
68578;SHT31;61668;45.388;11.784;2022-08-21T15:08:42;32.66;33.63
68578;SHT31;61668;45.388;11.784;2022-08-21T15:11:08;32.60;33.62
68578;SHT31;61668;45.388;11.784;2022-08-21T15:13:41;32.53;33.94
68578;SHT31;61668;45.388;11.784;2022-08-21T15:16:08;32.47;33.56
68578;SHT31;61668;45.388;11.784;2022-08-21T15:18:36;32.43;33.63
68578;SHT31;61668;45.388;11.784;2022-08-21T15:21:02;32.42;33.77
68578;SHT31;61668;45.388;11.784;2022-08-21T15:23:28;32.40;33.78
68578;SHT31;61668;45.388;11.784;2022-08-21T15:25:53;32.36;33.95
68578;SHT31;61668;45.388;11.784;2022-08-21T15:28:23;32.33;33.83
68578;SHT31;61668;45.388;11.784;2022-08-21T15:30:50;32.31;34.86
68578;SHT31;61668;45.388;11.784;2022-08-21T15:33:17;32.31;36.96
68578;SHT31;61668;45.388;11.784;2022-08-21T15:35:43;32.28;38.47
68578;SHT31;61668;45.388;11.784;2022-08-21T15:38:10;32.26;39.32
68578;SHT31;61668;45.388;11.784;2022-08-21T15:40:37;32.20;40.06
68578;SHT31;61668;45.388;11.784;2022-08-21T15:43:04;32.15;41.15
68578;SHT31;61668;45.388;11.784;2022-08-21T15:45:32;32.10;41.63
68578;SHT31;61668;45.388;11.784;2022-08-21T15:47:58;32.04;41.95
68578;SHT31;61668;45.388;11.784;2022-08-21T15:50:25;31.95;42.49
68578;SHT31;61668;45.388;11.784;2022-08-21T15:52:51;31.90;42.98
68578;SHT31;61668;45.388;11.784;2022-08-21T15:55:17;31.84;43.19
68578;SHT31;61668;45.388;11.784;2022-08-21T15:57:44;31.79;43.46
68578;SHT31;61668;45.388;11.784;2022-08-21T16:00:18;31.74;42.02
68578;SHT31;61668;45.388;11.784;2022-08-21T16:02:49;31.72;42.22
68578;SHT31;61668;45.388;11.784;2022-08-21T16:05:18;31.68;42.74
68578;SHT31;61668;45.388;11.784;2022-08-21T16:07:45;31.66;43.36
68578;SHT31;61668;45.388;11.784;2022-08-21T16:10:14;31.65;43.85
68578;SHT31;61668;45.388;11.784;2022-08-21T16:12:52;31.66;43.72
68578;SHT31;61668;45.388;11.784;2022-08-21T16:15:27;31.64;43.71
68578;SHT31;61668;45.388;11.784;2022-08-21T16:17:52;31.59;43.78
68578;SHT31;61668;45.388;11.784;2022-08-21T16:20:24;31.54;43.50
68578;SHT31;61668;45.388;11.784;2022-08-21T16:22:53;31.47;43.49
68578;SHT31;61668;45.388;11.784;2022-08-21T16:25:20;31.41;43.32
68578;SHT31;61668;45.388;11.784;2022-08-21T16:27:48;31.36;43.09
68578;SHT31;61668;45.388;11.784;2022-08-21T16:30:19;31.32;43.62
68578;SHT31;61668;45.388;11.784;2022-08-21T16:32:46;31.29;43.91
68578;SHT31;61668;45.388;11.784;2022-08-21T16:35:13;31.25;44.09
68578;SHT31;61668;45.388;11.784;2022-08-21T16:37:42;31.22;44.15
68578;SHT31;61668;45.388;11.784;2022-08-21T16:40:09;31.19;43.96
68578;SHT31;61668;45.388;11.784;2022-08-21T16:42:36;31.14;44.24
68578;SHT31;61668;45.388;11.784;2022-08-21T16:45:07;31.10;44.17
68578;SHT31;61668;45.388;11.784;2022-08-21T16:47:36;31.05;44.34
68578;SHT31;61668;45.388;11.784;2022-08-21T16:50:01;31.00;44.50
68578;SHT31;61668;45.388;11.784;2022-08-21T16:52:29;30.96;44.79
68578;SHT31;61668;45.388;11.784;2022-08-21T16:54:54;30.93;45.16
68578;SHT31;61668;45.388;11.784;2022-08-21T16:57:20;30.88;45.47
68578;SHT31;61668;45.388;11.784;2022-08-21T16:59:46;30.83;45.79
68578;SHT31;61668;45.388;11.784;2022-08-21T17:05:09;30.71;45.90
68578;SHT31;61668;45.388;11.784;2022-08-21T17:07:36;30.66;45.98
68578;SHT31;61668;45.388;11.784;2022-08-21T17:10:03;30.60;45.98
68578;SHT31;61668;45.388;11.784;2022-08-21T17:12:32;30.55;46.28
68578;SHT31;61668;45.388;11.784;2022-08-21T17:15:00;30.50;46.46
68578;SHT31;61668;45.388;11.784;2022-08-21T17:17:35;30.45;46.43
68578;SHT31;61668;45.388;11.784;2022-08-21T17:20:02;30.38;46.46
68578;SHT31;61668;45.388;11.784;2022-08-21T17:22:29;30.32;46.65
68578;SHT31;61668;45.388;11.784;2022-08-21T17:24:54;30.26;46.66
68578;SHT31;61668;45.388;11.784;2022-08-21T17:27:20;30.20;46.82
68578;SHT31;61668;45.388;11.784;2022-08-21T17:29:48;30.15;46.88
68578;SHT31;61668;45.388;11.784;2022-08-21T17:32:14;30.07;46.96
68578;SHT31;61668;45.388;11.784;2022-08-21T17:34:42;30.01;47.09
68578;SHT31;61668;45.388;11.784;2022-08-21T17:37:09;29.94;47.27